Terminal Aerodrome Forecast
Issued by NWS

Home | Current Version | Previous Version | Text Only | Print | Product List | Glossary On
Versions: 1 2 3 4 5 6 7 8 9 10 11 12 13 14 15
000
FTAK31 PAJN 232300
TAFAKT
TAF
PAKT 232322Z 2400/2424 33006KT P6SM FEW030 FEW200
     FM240300 VRB04KT P6SM SCT050 BKN150
     FM240900 VRB03KT P6SM SCT020 BKN050 OVC080
     FM241200 VRB03KT P6SM OVC050
     FM241500 VRB04KT P6SM VCSH SCT025 OVC050
     FM242100 14008KT P6SM -RA OVC050
      AMD LTD TO CLD VIS AND WIND 2406/2415=

USA.gov is the U.S. government's official web portal to all federal, state and local government web resources and services.